sensor_id;sensor_type;location;lat;lon;timestamp;temperature;humidity
1091;DHT22;534;48.704;9.122;2022-08-16T03:03:04;20.20;76.30
1091;DHT22;534;48.704;9.122;2022-08-16T03:05:32;19.90;77.50
1091;DHT22;534;48.704;9.122;2022-08-16T03:07:59;19.80;78.00
1091;DHT22;534;48.704;9.122;2022-08-16T03:10:25;19.70;78.30
1091;DHT22;534;48.704;9.122;2022-08-16T03:12:52;19.70;78.30
1091;DHT22;534;48.704;9.122;2022-08-16T03:15:25;19.80;78.10
1091;DHT22;534;48.704;9.122;2022-08-16T03:17:52;19.80;78.00
1091;DHT22;534;48.704;9.122;2022-08-16T03:20:20;20.00;77.60
1091;DHT22;534;48.704;9.122;2022-08-16T03:22:47;20.10;76.90
1091;DHT22;534;48.704;9.122;2022-08-16T03:25:15;20.10;76.80
1091;DHT22;534;48.704;9.122;2022-08-16T03:27:42;20.20;76.70
1091;DHT22;534;48.704;9.122;2022-08-16T03:30:11;20.30;76.40
1091;DHT22;534;48.704;9.122;2022-08-16T03:32:38;20.10;76.80
1091;DHT22;534;48.704;9.122;2022-08-16T03:35:06;20.00;77.30
1091;DHT22;534;48.704;9.122;2022-08-16T03:37:35;20.00;77.10
1091;DHT22;534;48.704;9.122;2022-08-16T03:40:03;20.00;77.10
1091;DHT22;534;48.704;9.122;2022-08-16T03:42:30;20.00;77.40
1091;DHT22;534;48.704;9.122;2022-08-16T03:44:56;20.10;76.90
1091;DHT22;534;48.704;9.122;2022-08-16T03:47:23;20.10;76.70
1091;DHT22;534;48.704;9.122;2022-08-16T03:49:51;20.20;76.50
1091;DHT22;534;48.704;9.122;2022-08-16T03:52:18;20.20;76.50
1091;DHT22;534;48.704;9.122;2022-08-16T03:54:46;20.10;76.90
1091;DHT22;534;48.704;9.122;2022-08-16T03:57:13;20.20;76.50
1091;DHT22;534;48.704;9.122;2022-08-16T03:59:40;20.30;76.20
1091;DHT22;534;48.704;9.122;2022-08-16T04:02:07;20.30;76.10
1091;DHT22;534;48.704;9.122;2022-08-16T04:04:36;20.30;76.10
1091;DHT22;534;48.704;9.122;2022-08-16T04:07:05;20.30;75.90
1091;DHT22;534;48.704;9.122;2022-08-16T04:09:33;20.40;75.80
1091;DHT22;534;48.704;9.122;2022-08-16T04:12:01;20.40;75.70
1091;DHT22;534;48.704;9.122;2022-08-16T04:14:28;20.40;75.70
1091;DHT22;534;48.704;9.122;2022-08-16T04:16:55;20.40;75.80
1091;DHT22;534;48.704;9.122;2022-08-16T04:19:21;20.40;75.70
1091;DHT22;534;48.704;9.122;2022-08-16T04:21:50;20.50;75.60
1091;DHT22;534;48.704;9.122;2022-08-16T04:24:17;20.50;75.50
1091;DHT22;534;48.704;9.122;2022-08-16T04:26:44;20.50;75.40
1091;DHT22;534;48.704;9.122;2022-08-16T04:29:12;20.60;75.20
1091;DHT22;534;48.704;9.122;2022-08-16T04:31:39;20.70;74.90
1091;DHT22;534;48.704;9.122;2022-08-16T04:34:05;20.70;74.80
1091;DHT22;534;48.704;9.122;2022-08-16T04:36:32;20.80;74.70
1091;DHT22;534;48.704;9.122;2022-08-16T04:39:00;20.80;74.50
1091;DHT22;534;48.704;9.122;2022-08-16T04:41:26;20.90;74.60
1091;DHT22;534;48.704;9.122;2022-08-16T04:43:55;20.90;74.50
1091;DHT22;534;48.704;9.122;2022-08-16T04:46:24;20.90;74.30
1091;DHT22;534;48.704;9.122;2022-08-16T04:48:50;20.90;74.30
1091;DHT22;534;48.704;9.122;2022-08-16T04:51:17;20.80;74.60
1091;DHT22;534;48.704;9.122;2022-08-16T04:53:44;20.70;74.70
1091;DHT22;534;48.704;9.122;2022-08-16T04:56:11;20.60;75.10
1091;DHT22;534;48.704;9.122;2022-08-16T04:58:37;20.70;74.80
1091;DHT22;534;48.704;9.122;2022-08-16T05:01:04;20.80;74.60
1091;DHT22;534;48.704;9.122;2022-08-16T05:03:32;20.90;74.40
1091;DHT22;534;48.704;9.122;2022-08-16T05:05:59;20.90;74.20
1091;DHT22;534;48.704;9.122;2022-08-16T05:08:27;21.00;74.10
1091;DHT22;534;48.704;9.122;2022-08-16T05:10:55;21.10;74.10
1091;DHT22;534;48.704;9.122;2022-08-16T05:13:21;21.10;74.00
1091;DHT22;534;48.704;9.122;2022-08-16T05:15:48;21.20;73.80
1091;DHT22;534;48.704;9.122;2022-08-16T05:18:15;21.20;73.70
1091;DHT22;534;48.704;9.122;2022-08-16T05:20:43;21.10;73.90
1091;DHT22;534;48.704;9.122;2022-08-16T05:23:09;20.80;74.70
1091;DHT22;534;48.704;9.122;2022-08-16T05:25:36;20.50;75.60
1091;DHT22;534;48.704;9.122;2022-08-16T05:28:03;20.40;76.40
1091;DHT22;534;48.704;9.122;2022-08-16T05:30:29;20.40;76.40
1091;DHT22;534;48.704;9.122;2022-08-16T05:32:56;20.40;76.10
1091;DHT22;534;48.704;9.122;2022-08-16T05:35:23;20.50;76.10
1091;DHT22;534;48.704;9.122;2022-08-16T05:37:51;20.70;75.70
1091;DHT22;534;48.704;9.122;2022-08-16T05:40:17;20.70;75.40
1091;DHT22;534;48.704;9.122;2022-08-16T05:42:44;20.70;75.50
1091;DHT22;534;48.704;9.122;2022-08-16T05:45:11;20.80;75.60
1091;DHT22;534;48.704;9.122;2022-08-16T05:47:37;20.90;75.40
1091;DHT22;534;48.704;9.122;2022-08-16T05:50:05;21.00;75.20
1091;DHT22;534;48.704;9.122;2022-08-16T05:52:32;21.20;74.60
1091;DHT22;534;48.704;9.122;2022-08-16T05:55:00;21.10;74.30
1091;DHT22;534;48.704;9.122;2022-08-16T05:57:27;21.20;74.10
1091;DHT22;534;48.704;9.122;2022-08-16T05:59:54;21.20;74.00
1091;DHT22;534;48.704;9.122;2022-08-16T06:02:21;21.10;74.40
1091;DHT22;534;48.704;9.122;2022-08-16T06:04:50;21.30;73.90
1091;DHT22;534;48.704;9.122;2022-08-16T06:07:17;21.40;73.70
1091;DHT22;534;48.704;9.122;2022-08-16T06:09:44;21.30;73.50
1091;DHT22;534;48.704;9.122;2022-08-16T06:12:13;21.20;73.90
1091;DHT22;534;48.704;9.122;2022-08-16T06:14:40;21.30;74.50
1091;DHT22;534;48.704;9.122;2022-08-16T06:17:07;21.40;74.00
1091;DHT22;534;48.704;9.122;2022-08-16T06:19:33;21.50;73.60
1091;DHT22;534;48.704;9.122;2022-08-16T06:22:00;21.80;72.80
1091;DHT22;534;48.704;9.122;2022-08-16T06:24:27;22.00;72.00
1091;DHT22;534;48.704;9.122;2022-08-16T06:26:53;22.10;72.20
1091;DHT22;534;48.704;9.122;2022-08-16T06:29:21;22.30;71.10
1091;DHT22;534;48.704;9.122;2022-08-16T06:31:48;22.30;71.20
1091;DHT22;534;48.704;9.122;2022-08-16T06:34:15;22.30;71.00
1091;DHT22;534;48.704;9.122;2022-08-16T06:36:41;22.40;70.70
1091;DHT22;534;48.704;9.122;2022-08-16T06:39:08;22.40;71.70
1091;DHT22;534;48.704;9.122;2022-08-16T06:41:35;22.70;70.80
1091;DHT22;534;48.704;9.122;2022-08-16T06:44:02;22.90;70.60
1091;DHT22;534;48.704;9.122;2022-08-16T06:46:32;23.10;69.10
1091;DHT22;534;48.704;9.122;2022-08-16T06:49:02;23.10;69.50
1091;DHT22;534;48.704;9.122;2022-08-16T06:51:29;23.30;68.90
1091;DHT22;534;48.704;9.122;2022-08-16T06:53:56;23.50;68.90
1091;DHT22;534;48.704;9.122;2022-08-16T06:56:23;23.70;68.40
1091;DHT22;534;48.704;9.122;2022-08-16T06:58:50;23.80;66.90
1091;DHT22;534;48.704;9.122;2022-08-16T07:01:17;23.90;67.50
1091;DHT22;534;48.704;9.122;2022-08-16T07:03:46;24.00;66.60
1091;DHT22;534;48.704;9.122;2022-08-16T07:06:13;23.80;67.70
1091;DHT22;534;48.704;9.122;2022-08-16T07:08:39;23.90;67.40
1091;DHT22;534;48.704;9.122;2022-08-16T07:11:07;24.10;66.70
1091;DHT22;534;48.704;9.122;2022-08-16T07:13:34;24.10;66.50
1091;DHT22;534;48.704;9.122;2022-08-16T07:16:02;24.30;66.60
1091;DHT22;534;48.704;9.122;2022-08-16T07:18:30;24.70;65.90
1091;DHT22;534;48.704;9.122;2022-08-16T07:20:58;24.70;64.80
1091;DHT22;534;48.704;9.122;2022-08-16T07:23:25;25.10;63.90
1091;DHT22;534;48.704;9.122;2022-08-16T07:25:53;25.40;63.20
1091;DHT22;534;48.704;9.122;2022-08-16T07:28:20;25.70;62.60
1091;DHT22;534;48.704;9.122;2022-08-16T07:30:47;26.00;62.10
1091;DHT22;534;48.704;9.122;2022-08-16T07:33:14;26.10;60.80
1091;DHT22;534;48.704;9.122;2022-08-16T07:35:43;26.30;60.90
1091;DHT22;534;48.704;9.122;2022-08-16T07:38:11;26.10;60.40
1091;DHT22;534;48.704;9.122;2022-08-16T07:40:37;26.20;61.40
1091;DHT22;534;48.704;9.122;2022-08-16T07:43:04;26.20;60.90
1091;DHT22;534;48.704;9.122;2022-08-16T07:45:31;26.20;60.80
1091;DHT22;534;48.704;9.122;2022-08-16T07:47:59;26.30;59.40
1091;DHT22;534;48.704;9.122;2022-08-16T07:50:26;26.00;60.50
1091;DHT22;534;48.704;9.122;2022-08-16T07:52:53;26.00;61.00
1091;DHT22;534;48.704;9.122;2022-08-16T07:55:21;26.20;60.10
1091;DHT22;534;48.704;9.122;2022-08-16T07:57:47;26.20;59.90
1091;DHT22;534;48.704;9.122;2022-08-16T08:00:15;26.40;60.20
1091;DHT22;534;48.704;9.122;2022-08-16T08:02:42;26.50;59.60
1091;DHT22;534;48.704;9.122;2022-08-16T08:05:08;26.60;58.50
1091;DHT22;534;48.704;9.122;2022-08-16T08:07:35;26.60;59.50
1091;DHT22;534;48.704;9.122;2022-08-16T08:10:03;26.70;58.30
1091;DHT22;534;48.704;9.122;2022-08-16T08:12:31;26.90;57.20
1091;DHT22;534;48.704;9.122;2022-08-16T08:14:58;27.10;57.70
1091;DHT22;534;48.704;9.122;2022-08-16T08:17:25;27.20;56.90
1091;DHT22;534;48.704;9.122;2022-08-16T08:19:54;27.20;57.10
1091;DHT22;534;48.704;9.122;2022-08-16T08:22:21;27.10;56.80
1091;DHT22;534;48.704;9.122;2022-08-16T08:24:48;26.90;57.40
1091;DHT22;534;48.704;9.122;2022-08-16T08:27:16;26.80;57.60
1091;DHT22;534;48.704;9.122;2022-08-16T08:29:44;26.60;58.30
1091;DHT22;534;48.704;9.122;2022-08-16T08:32:10;25.90;59.30
1091;DHT22;534;48.704;9.122;2022-08-16T08:34:37;25.50;60.30
1091;DHT22;534;48.704;9.122;2022-08-16T08:37:04;25.50;61.50
1091;DHT22;534;48.704;9.122;2022-08-16T08:39:31;25.80;59.90
1091;DHT22;534;48.704;9.122;2022-08-16T08:41:59;26.10;59.90
1091;DHT22;534;48.704;9.122;2022-08-16T08:44:26;26.30;58.70
1091;DHT22;534;48.704;9.122;2022-08-16T08:46:54;26.50;58.40
1091;DHT22;534;48.704;9.122;2022-08-16T08:49:23;26.60;57.30
1091;DHT22;534;48.704;9.122;2022-08-16T08:51:50;26.50;58.70
1091;DHT22;534;48.704;9.122;2022-08-16T08:54:17;26.60;57.80
1091;DHT22;534;48.704;9.122;2022-08-16T08:56:43;26.80;57.60
1091;DHT22;534;48.704;9.122;2022-08-16T08:59:11;27.20;57.20
1091;DHT22;534;48.704;9.122;2022-08-16T09:01:39;27.60;56.10
1091;DHT22;534;48.704;9.122;2022-08-16T09:04:07;27.80;55.80
1091;DHT22;534;48.704;9.122;2022-08-16T09:06:34;27.90;55.00
1091;DHT22;534;48.704;9.122;2022-08-16T09:09:02;28.00;55.50
1091;DHT22;534;48.704;9.122;2022-08-16T09:11:29;28.10;54.80
1091;DHT22;534;48.704;9.122;2022-08-16T09:13:56;28.10;54.50
1091;DHT22;534;48.704;9.122;2022-08-16T09:16:29;27.90;55.10
1091;DHT22;534;48.704;9.122;2022-08-16T09:18:57;27.80;55.50
1091;DHT22;534;48.704;9.122;2022-08-16T09:21:25;27.60;55.90
1091;DHT22;534;48.704;9.122;2022-08-16T09:23:52;27.50;56.30
1091;DHT22;534;48.704;9.122;2022-08-16T09:26:19;27.30;56.70
1091;DHT22;534;48.704;9.122;2022-08-16T09:28:45;27.10;57.10
1091;DHT22;534;48.704;9.122;2022-08-16T09:31:13;27.00;57.20
1091;DHT22;534;48.704;9.122;2022-08-16T09:33:42;26.90;57.90
1091;DHT22;534;48.704;9.122;2022-08-16T09:36:09;26.80;58.20
1091;DHT22;534;48.704;9.122;2022-08-16T09:38:38;26.80;57.60
1091;DHT22;534;48.704;9.122;2022-08-16T09:41:07;26.80;58.70
1091;DHT22;534;48.704;9.122;2022-08-16T09:43:35;26.90;58.30
1091;DHT22;534;48.704;9.122;2022-08-16T09:46:04;26.90;57.50
1091;DHT22;534;48.704;9.122;2022-08-16T09:48:32;26.90;57.80
1091;DHT22;534;48.704;9.122;2022-08-16T09:50:59;26.40;58.10
1091;DHT22;534;48.704;9.122;2022-08-16T09:53:26;26.00;59.00
1091;DHT22;534;48.704;9.122;2022-08-16T09:55:55;26.20;58.70
1091;DHT22;534;48.704;9.122;2022-08-16T09:58:25;26.50;58.40
1091;DHT22;534;48.704;9.122;2022-08-16T10:00:52;26.70;57.60
1091;DHT22;534;48.704;9.122;2022-08-16T10:03:20;26.80;58.20
1091;DHT22;534;48.704;9.122;2022-08-16T10:05:47;26.40;57.10
1091;DHT22;534;48.704;9.122;2022-08-16T10:08:14;26.10;59.40
1091;DHT22;534;48.704;9.122;2022-08-16T10:10:42;26.10;58.10
1091;DHT22;534;48.704;9.122;2022-08-16T10:13:31;26.20;58.10
1091;DHT22;534;48.704;9.122;2022-08-16T10:15:58;26.30;58.30
1091;DHT22;534;48.704;9.122;2022-08-16T10:18:26;26.50;56.60
1091;DHT22;534;48.704;9.122;2022-08-16T10:20:54;26.50;56.30
1091;DHT22;534;48.704;9.122;2022-08-16T10:23:22;26.50;55.80
1091;DHT22;534;48.704;9.122;2022-08-16T10:25:50;26.50;55.60
1091;DHT22;534;48.704;9.122;2022-08-16T10:28:17;26.60;54.90
1091;DHT22;534;48.704;9.122;2022-08-16T10:30:45;26.70;56.30
1091;DHT22;534;48.704;9.122;2022-08-16T10:33:13;26.80;54.90
1091;DHT22;534;48.704;9.122;2022-08-16T10:35:40;27.00;55.60
1091;DHT22;534;48.704;9.122;2022-08-16T10:38:07;26.90;55.30
1091;DHT22;534;48.704;9.122;2022-08-16T10:40:34;27.00;55.30
1091;DHT22;534;48.704;9.122;2022-08-16T10:43:01;27.10;55.00
1091;DHT22;534;48.704;9.122;2022-08-16T10:45:28;27.30;55.10
1091;DHT22;534;48.704;9.122;2022-08-16T10:47:57;27.40;54.40
1091;DHT22;534;48.704;9.122;2022-08-16T10:50:25;27.50;54.60
1091;DHT22;534;48.704;9.122;2022-08-16T10:52:52;27.60;53.20
1091;DHT22;534;48.704;9.122;2022-08-16T10:55:19;27.50;53.00
1091;DHT22;534;48.704;9.122;2022-08-16T10:57:46;27.40;53.30
1091;DHT22;534;48.704;9.122;2022-08-16T11:00:15;27.10;53.90
1091;DHT22;534;48.704;9.122;2022-08-16T11:02:43;27.20;54.10
1091;DHT22;534;48.704;9.122;2022-08-16T11:05:14;27.20;54.20
1091;DHT22;534;48.704;9.122;2022-08-16T11:07:44;27.20;54.40
1091;DHT22;534;48.704;9.122;2022-08-16T11:10:13;27.20;54.60
1091;DHT22;534;48.704;9.122;2022-08-16T11:12:40;27.40;54.00
1091;DHT22;534;48.704;9.122;2022-08-16T11:15:07;27.40;53.30
1091;DHT22;534;48.704;9.122;2022-08-16T11:17:34;27.60;53.90
1091;DHT22;534;48.704;9.122;2022-08-16T11:20:01;27.90;53.40
1091;DHT22;534;48.704;9.122;2022-08-16T11:22:29;28.20;53.50
1091;DHT22;534;48.704;9.122;2022-08-16T11:24:57;28.40;51.50
1091;DHT22;534;48.704;9.122;2022-08-16T11:27:24;28.20;51.90
1091;DHT22;534;48.704;9.122;2022-08-16T11:29:53;28.40;52.30
1091;DHT22;534;48.704;9.122;2022-08-16T11:32:20;28.40;52.20
1091;DHT22;534;48.704;9.122;2022-08-16T11:34:47;28.70;53.30
1091;DHT22;534;48.704;9.122;2022-08-16T11:37:13;29.00;50.70
1091;DHT22;534;48.704;9.122;2022-08-16T11:39:41;29.40;50.40
1091;DHT22;534;48.704;9.122;2022-08-16T11:42:08;29.40;49.60
1091;DHT22;534;48.704;9.122;2022-08-16T11:44:35;29.50;49.20
1091;DHT22;534;48.704;9.122;2022-08-16T11:47:02;29.60;49.80
1091;DHT22;534;48.704;9.122;2022-08-16T11:49:29;29.40;48.80
1091;DHT22;534;48.704;9.122;2022-08-16T11:51:55;29.50;49.20
1091;DHT22;534;48.704;9.122;2022-08-16T11:54:22;29.40;49.20
1091;DHT22;534;48.704;9.122;2022-08-16T11:56:51;29.50;49.30
1091;DHT22;534;48.704;9.122;2022-08-16T11:59:17;29.30;48.80
1091;DHT22;534;48.704;9.122;2022-08-16T12:01:44;28.90;50.20
1091;DHT22;534;48.704;9.122;2022-08-16T12:04:11;28.60;50.50
1091;DHT22;534;48.704;9.122;2022-08-16T12:06:37;28.70;51.10
1091;DHT22;534;48.704;9.122;2022-08-16T12:09:04;28.50;50.10
1091;DHT22;534;48.704;9.122;2022-08-16T12:11:31;28.50;50.80
1091;DHT22;534;48.704;9.122;2022-08-16T12:14:00;28.70;52.00
1091;DHT22;534;48.704;9.122;2022-08-16T12:16:26;29.20;50.60
1091;DHT22;534;48.704;9.122;2022-08-16T12:18:53;29.30;50.90
1091;DHT22;534;48.704;9.122;2022-08-16T12:21:20;29.60;50.20
1091;DHT22;534;48.704;9.122;2022-08-16T12:23:46;29.90;49.00
1091;DHT22;534;48.704;9.122;2022-08-16T12:26:13;30.20;49.00
1091;DHT22;534;48.704;9.122;2022-08-16T12:28:41;30.50;48.30
1091;DHT22;534;48.704;9.122;2022-08-16T12:31:09;30.80;47.20
1091;DHT22;534;48.704;9.122;2022-08-16T12:33:36;30.90;48.30
1091;DHT22;534;48.704;9.122;2022-08-16T12:36:09;30.90;46.90
1091;DHT22;534;48.704;9.122;2022-08-16T12:38:35;30.70;47.20
1091;DHT22;534;48.704;9.122;2022-08-16T12:41:02;30.70;46.90
1091;DHT22;534;48.704;9.122;2022-08-16T12:43:29;30.70;47.70
1091;DHT22;534;48.704;9.122;2022-08-16T12:45:56;30.80;46.30
1091;DHT22;534;48.704;9.122;2022-08-16T12:48:28;30.60;46.90
1091;DHT22;534;48.704;9.122;2022-08-16T12:51:15;30.60;46.90
1091;DHT22;534;48.704;9.122;2022-08-16T12:53:42;30.20;47.10
1091;DHT22;534;48.704;9.122;2022-08-16T12:56:10;30.20;48.80
1091;DHT22;534;48.704;9.122;2022-08-16T12:58:37;30.40;47.60
1091;DHT22;534;48.704;9.122;2022-08-16T13:01:05;30.80;47.80
1091;DHT22;534;48.704;9.122;2022-08-16T13:03:34;31.10;47.50
1091;DHT22;534;48.704;9.122;2022-08-16T13:06:03;31.30;46.20
1091;DHT22;534;48.704;9.122;2022-08-16T13:08:30;31.30;45.80
1091;DHT22;534;48.704;9.122;2022-08-16T13:10:57;30.90;46.10
1091;DHT22;534;48.704;9.122;2022-08-16T13:13:25;30.70;45.90
1091;DHT22;534;48.704;9.122;2022-08-16T13:15:53;30.40;47.10
1091;DHT22;534;48.704;9.122;2022-08-16T13:18:22;30.20;47.30
1091;DHT22;534;48.704;9.122;2022-08-16T13:20:50;30.50;47.00
1091;DHT22;534;48.704;9.122;2022-08-16T13:23:18;30.50;46.90
1091;DHT22;534;48.704;9.122;2022-08-16T13:25:47;30.30;46.70
1091;DHT22;534;48.704;9.122;2022-08-16T13:28:15;30.60;47.20
1091;DHT22;534;48.704;9.122;2022-08-16T13:30:45;31.00;46.60
1091;DHT22;534;48.704;9.122;2022-08-16T13:33:14;31.40;45.30
1091;DHT22;534;48.704;9.122;2022-08-16T13:35:43;31.60;44.00
1091;DHT22;534;48.704;9.122;2022-08-16T13:38:12;31.90;44.00
1091;DHT22;534;48.704;9.122;2022-08-16T13:40:39;32.20;43.50
1091;DHT22;534;48.704;9.122;2022-08-16T13:43:06;32.40;42.40
1091;DHT22;534;48.704;9.122;2022-08-16T13:45:32;32.60;42.70
1091;DHT22;534;48.704;9.122;2022-08-16T13:47:59;32.60;42.00
1091;DHT22;534;48.704;9.122;2022-08-16T13:50:26;32.70;41.80
1091;DHT22;534;48.704;9.122;2022-08-16T13:52:53;32.90;41.80
1091;DHT22;534;48.704;9.122;2022-08-16T13:55:21;32.70;40.60
1091;DHT22;534;48.704;9.122;2022-08-16T13:57:48;32.20;41.80
1091;DHT22;534;48.704;9.122;2022-08-16T14:00:16;32.20;42.20
1091;DHT22;534;48.704;9.122;2022-08-16T14:02:43;32.00;42.40
1091;DHT22;534;48.704;9.122;2022-08-16T14:05:11;32.00;42.80
1091;DHT22;534;48.704;9.122;2022-08-16T14:07:38;32.20;42.80
1091;DHT22;534;48.704;9.122;2022-08-16T14:10:07;32.40;42.20
1091;DHT22;534;48.704;9.122;2022-08-16T14:12:36;32.40;41.70
1091;DHT22;534;48.704;9.122;2022-08-16T14:15:05;32.30;41.70
1091;DHT22;534;48.704;9.122;2022-08-16T14:17:33;31.90;42.10
1091;DHT22;534;48.704;9.122;2022-08-16T14:20:00;31.60;42.30
1091;DHT22;534;48.704;9.122;2022-08-16T14:22:28;31.50;43.40
1091;DHT22;534;48.704;9.122;2022-08-16T14:24:56;31.50;43.90
1091;DHT22;534;48.704;9.122;2022-08-16T14:27:26;31.50;43.60
1091;DHT22;534;48.704;9.122;2022-08-16T14:29:55;31.40;44.80
1091;DHT22;534;48.704;9.122;2022-08-16T14:32:25;31.30;44.30
1091;DHT22;534;48.704;9.122;2022-08-16T14:34:52;31.30;44.00
1091;DHT22;534;48.704;9.122;2022-08-16T14:37:19;31.30;42.90
1091;DHT22;534;48.704;9.122;2022-08-16T14:39:46;31.40;41.70
1091;DHT22;534;48.704;9.122;2022-08-16T14:42:16;31.50;42.90
1091;DHT22;534;48.704;9.122;2022-08-16T14:44:43;31.90;42.80
1091;DHT22;534;48.704;9.122;2022-08-16T14:47:12;32.10;41.90
1091;DHT22;534;48.704;9.122;2022-08-16T14:49:40;32.40;41.30
1091;DHT22;534;48.704;9.122;2022-08-16T14:52:09;32.70;41.10
1091;DHT22;534;48.704;9.122;2022-08-16T14:54:37;33.00;40.30
1091;DHT22;534;48.704;9.122;2022-08-16T14:57:05;33.30;40.40
1091;DHT22;534;48.704;9.122;2022-08-16T14:59:32;33.70;40.20
1091;DHT22;534;48.704;9.122;2022-08-16T15:01:59;33.80;39.10
1091;DHT22;534;48.704;9.122;2022-08-16T15:04:29;33.90;38.70
1091;DHT22;534;48.704;9.122;2022-08-16T15:06:57;34.20;38.70
1091;DHT22;534;48.704;9.122;2022-08-16T15:09:24;34.80;38.90
1091;DHT22;534;48.704;9.122;2022-08-16T15:11:50;35.50;37.00
1091;DHT22;534;48.704;9.122;2022-08-16T15:14:17;36.00;36.70
1091;DHT22;534;48.704;9.122;2022-08-16T15:16:44;36.40;36.00
1091;DHT22;534;48.704;9.122;2022-08-16T15:19:11;36.60;35.70
1091;DHT22;534;48.704;9.122;2022-08-16T15:21:39;36.40;35.80
1091;DHT22;534;48.704;9.122;2022-08-16T15:24:05;36.40;35.40
1091;DHT22;534;48.704;9.122;2022-08-16T15:26:32;36.50;35.60
1091;DHT22;534;48.704;9.122;2022-08-16T15:28:59;35.90;35.70
1091;DHT22;534;48.704;9.122;2022-08-16T15:31:26;35.70;36.40
1091;DHT22;534;48.704;9.122;2022-08-16T15:33:52;35.80;36.20
1091;DHT22;534;48.704;9.122;2022-08-16T15:36:20;36.00;35.80
1091;DHT22;534;48.704;9.122;2022-08-16T15:38:50;36.40;35.60
1091;DHT22;534;48.704;9.122;2022-08-16T15:41:50;37.10;34.60
1091;DHT22;534;48.704;9.122;2022-08-16T15:44:22;37.50;34.70
1091;DHT22;534;48.704;9.122;2022-08-16T15:46:49;37.30;34.80
1091;DHT22;534;48.704;9.122;2022-08-16T15:49:16;36.50;36.70
1091;DHT22;534;48.704;9.122;2022-08-16T15:51:44;35.80;38.20
1091;DHT22;534;48.704;9.122;2022-08-16T15:54:11;34.90;39.00
1091;DHT22;534;48.704;9.122;2022-08-16T15:56:38;34.20;40.00
1091;DHT22;534;48.704;9.122;2022-08-16T15:59:04;33.60;41.00
1091;DHT22;534;48.704;9.122;2022-08-16T16:01:33;33.00;41.70
1091;DHT22;534;48.704;9.122;2022-08-16T16:03:59;32.60;42.70
1091;DHT22;534;48.704;9.122;2022-08-16T16:06:26;32.20;43.50
1091;DHT22;534;48.704;9.122;2022-08-16T16:08:53;31.90;44.00
1091;DHT22;534;48.704;9.122;2022-08-16T16:11:19;31.80;44.00
1091;DHT22;534;48.704;9.122;2022-08-16T16:13:46;31.60;44.30
1091;DHT22;534;48.704;9.122;2022-08-16T16:16:13;31.50;44.40
1091;DHT22;534;48.704;9.122;2022-08-16T16:18:41;31.40;44.40
1091;DHT22;534;48.704;9.122;2022-08-16T16:21:09;31.40;44.30
1091;DHT22;534;48.704;9.122;2022-08-16T16:23:40;31.30;44.60
1091;DHT22;534;48.704;9.122;2022-08-16T16:26:09;31.20;44.60
1091;DHT22;534;48.704;9.122;2022-08-16T16:28:36;31.10;45.30
1091;DHT22;534;48.704;9.122;2022-08-16T16:31:06;31.00;45.20
1091;DHT22;534;48.704;9.122;2022-08-16T16:33:33;30.80;46.00
1091;DHT22;534;48.704;9.122;2022-08-16T16:36:05;30.70;46.10
1091;DHT22;534;48.704;9.122;2022-08-16T16:38:33;30.50;46.10
1091;DHT22;534;48.704;9.122;2022-08-16T16:41:02;30.50;46.30
1091;DHT22;534;48.704;9.122;2022-08-16T16:43:31;30.50;46.40
1091;DHT22;534;48.704;9.122;2022-08-16T16:46:00;30.40;46.50
1091;DHT22;534;48.704;9.122;2022-08-16T16:48:28;30.50;46.70
1091;DHT22;534;48.704;9.122;2022-08-16T16:50:54;30.50;46.60
1091;DHT22;534;48.704;9.122;2022-08-16T16:53:24;30.50;46.00
1091;DHT22;534;48.704;9.122;2022-08-16T16:55:51;30.60;46.40
1091;DHT22;534;48.704;9.122;2022-08-16T16:58:18;30.70;46.10
1091;DHT22;534;48.704;9.122;2022-08-16T17:01:02;30.60;46.10
1091;DHT22;534;48.704;9.122;2022-08-16T17:03:29;30.60;46.00
1091;DHT22;534;48.704;9.122;2022-08-16T17:05:57;30.40;46.40
1091;DHT22;534;48.704;9.122;2022-08-16T17:08:26;30.30;46.60
1091;DHT22;534;48.704;9.122;2022-08-16T17:10:53;30.20;46.50
1091;DHT22;534;48.704;9.122;2022-08-16T17:13:20;30.20;47.00
1091;DHT22;534;48.704;9.122;2022-08-16T17:15:47;30.10;46.70
1091;DHT22;534;48.704;9.122;2022-08-16T17:18:14;30.00;46.90
1091;DHT22;534;48.704;9.122;2022-08-16T17:20:41;29.90;47.20
1091;DHT22;534;48.704;9.122;2022-08-16T17:23:08;30.00;47.20
1091;DHT22;534;48.704;9.122;2022-08-16T17:25:36;29.90;47.20
1091;DHT22;534;48.704;9.122;2022-08-16T17:28:04;29.80;47.40
1091;DHT22;534;48.704;9.122;2022-08-16T17:30:31;29.80;47.90
1091;DHT22;534;48.704;9.122;2022-08-16T17:33:00;29.80;48.50
1091;DHT22;534;48.704;9.122;2022-08-16T17:35:31;29.80;47.90
1091;DHT22;534;48.704;9.122;2022-08-16T17:37:59;29.80;47.80
1091;DHT22;534;48.704;9.122;2022-08-16T17:40:30;29.80;48.50
1091;DHT22;534;48.704;9.122;2022-08-16T17:42:59;29.90;49.00
1091;DHT22;534;48.704;9.122;2022-08-16T17:45:26;29.90;48.40
1091;DHT22;534;48.704;9.122;2022-08-16T17:47:53;29.90;48.30
1091;DHT22;534;48.704;9.122;2022-08-16T17:50:20;29.80;48.50
1091;DHT22;534;48.704;9.122;2022-08-16T17:52:47;29.80;48.30
1091;DHT22;534;48.704;9.122;2022-08-16T17:55:19;29.80;48.20
1091;DHT22;534;48.704;9.122;2022-08-16T17:57:46;29.70;48.00
1091;DHT22;534;48.704;9.122;2022-08-16T18:00:14;29.70;48.20
1091;DHT22;534;48.704;9.122;2022-08-16T18:02:42;29.60;48.50
1091;DHT22;534;48.704;9.122;2022-08-16T18:05:09;29.60;48.40
1091;DHT22;534;48.704;9.122;2022-08-16T18:07:38;29.60;48.50
1091;DHT22;534;48.704;9.122;2022-08-16T18:10:06;29.60;48.30
1091;DHT22;534;48.704;9.122;2022-08-16T18:12:33;29.60;48.60
1091;DHT22;534;48.704;9.122;2022-08-16T18:15:05;29.60;48.90
1091;DHT22;534;48.704;9.122;2022-08-16T18:17:33;29.50;48.90
1091;DHT22;534;48.704;9.122;2022-08-16T18:20:00;29.50;49.40
1091;DHT22;534;48.704;9.122;2022-08-16T18:22:29;29.40;49.20
1091;DHT22;534;48.704;9.122;2022-08-16T18:24:55;29.30;49.40
1091;DHT22;534;48.704;9.122;2022-08-16T18:27:22;29.30;49.60
1091;DHT22;534;48.704;9.122;2022-08-16T18:29:49;29.20;49.40
1091;DHT22;534;48.704;9.122;2022-08-16T18:32:17;29.20;50.00
1091;DHT22;534;48.704;9.122;2022-08-16T18:34:45;29.10;50.00
1091;DHT22;534;48.704;9.122;2022-08-16T18:37:11;29.00;50.50
1091;DHT22;534;48.704;9.122;2022-08-16T18:39:38;29.00;50.20
1091;DHT22;534;48.704;9.122;2022-08-16T18:42:09;28.90;50.60
1091;DHT22;534;48.704;9.122;2022-08-16T18:44:36;28.80;51.00
1091;DHT22;534;48.704;9.122;2022-08-16T18:47:04;28.70;50.80
1091;DHT22;534;48.704;9.122;2022-08-16T18:49:31;28.70;51.10
1091;DHT22;534;48.704;9.122;2022-08-16T18:51:59;28.60;51.70
1091;DHT22;534;48.704;9.122;2022-08-16T18:54:28;28.60;52.00
1091;DHT22;534;48.704;9.122;2022-08-16T18:56:55;28.50;53.00
1091;DHT22;534;48.704;9.122;2022-08-16T18:59:27;28.40;53.20
1091;DHT22;534;48.704;9.122;2022-08-16T19:01:54;28.40;54.10
1091;DHT22;534;48.704;9.122;2022-08-16T19:04:21;28.20;53.70
1091;DHT22;534;48.704;9.122;2022-08-16T19:06:48;28.20;54.60
1091;DHT22;534;48.704;9.122;2022-08-16T19:09:16;28.10;54.40
1091;DHT22;534;48.704;9.122;2022-08-16T19:11:43;28.00;54.30
1091;DHT22;534;48.704;9.122;2022-08-16T19:14:09;27.90;54.30
1091;DHT22;534;48.704;9.122;2022-08-16T19:16:36;27.80;55.80
1091;DHT22;534;48.704;9.122;2022-08-16T19:19:03;27.80;55.10
1091;DHT22;534;48.704;9.122;2022-08-16T19:21:29;27.70;55.10